Time;durP1;ratioP1;P1;durP2;ratioP2;P2;SDS_P1;SDS_P2;PMS_P1;PMS_P2;Temp;Humidity;BMP_temperature;BMP_pressure;BME280_temperature;BME280_humidity;BME280_pressure;Samples;Min_cycle;Max_cycle;Signal;HPM_P1;HPM_P2
2022/09/25 00:01:00;;;;;;;6.32;5.18;;;;;;;13.12;78.17;100572.75;5046720;28;20052;-67
2022/09/25 00:03:28;;;;;;;7.07;6.28;;;;;;;13.17;78.99;100575.06;5071187;28;20531;-66
2022/09/25 00:06:04;;;;;;;8.00;5.85;;;;;;;13.16;77.83;100579.53;5063572;28;20297;-64
2022/09/25 00:08:32;;;;;;;6.47;5.85;;;;;;;13.19;78.14;100581.09;5046172;28;20063;-65
2022/09/25 00:10:59;;;;;;;7.00;6.30;;;;;;;13.19;77.40;100578.44;5063238;28;20492;-66
2022/09/25 00:13:26;;;;;;;8.07;6.90;;;;;;;13.20;77.73;100577.50;5047966;28;20045;-64
2022/09/25 00:15:55;;;;;;;8.40;7.53;;;;;;;13.18;78.14;100571.47;5067154;28;20068;-66
2022/09/25 00:21:13;;;;;;;6.60;5.10;;;;;;;13.21;77.36;100571.25;5053322;28;20045;-66
2022/09/25 00:23:43;;;;;;;6.85;5.85;;;;;;;13.18;77.74;100577.59;5049055;28;20068;-65
2022/09/25 00:26:12;;;;;;;7.63;4.97;;;;;;;13.20;77.44;100564.28;5065753;28;20412;-66
2022/09/25 00:28:41;;;;;;;5.63;4.65;;;;;;;13.22;76.50;100566.81;5065800;28;20096;-64
2022/09/25 00:31:09;;;;;;;5.82;4.50;;;;;;;13.22;76.74;100551.84;5063011;28;20051;-64
2022/09/25 00:33:36;;;;;;;6.70;5.32;;;;;;;13.24;76.24;100554.34;5065422;28;20060;-65
2022/09/25 00:36:06;;;;;;;6.43;5.00;;;;;;;13.17;76.93;100552.13;5066402;28;20524;-65
2022/09/25 00:38:34;;;;;;;8.32;5.68;;;;;;;13.11;78.74;100549.09;5065758;28;20456;-65
2022/09/25 00:41:03;;;;;;;7.05;5.25;;;;;;;13.04;78.76;100548.66;5066778;28;20068;-65
2022/09/25 00:43:39;;;;;;;6.65;5.22;;;;;;;13.01;78.79;100542.75;5059892;28;20509;-65
2022/09/25 00:46:18;;;;;;;5.25;4.40;;;;;;;13.01;77.83;100545.38;5065367;28;20044;-64
2022/09/25 00:48:50;;;;;;;4.65;4.13;;;;;;;13.01;78.09;100548.88;5070367;28;20116;-65
2022/09/25 00:51:20;;;;;;;5.63;4.43;;;;;;;13.02;77.87;100542.66;5046540;28;20052;-64
2022/09/25 00:53:48;;;;;;;5.70;4.68;;;;;;;13.04;77.85;100550.47;5037933;28;20048;-64
2022/09/25 00:56:16;;;;;;;6.53;4.50;;;;;;;13.01;77.73;100548.03;5033812;28;20051;-65
2022/09/25 00:58:43;;;;;;;5.20;4.43;;;;;;;13.02;77.24;100547.09;5073364;28;20063;-64
2022/09/25 01:01:10;;;;;;;7.03;5.47;;;;;;;12.99;78.15;100550.78;5060383;28;20049;-65
2022/09/25 01:03:39;;;;;;;5.25;4.50;;;;;;;13.03;77.55;100541.69;5041405;28;20060;-64
2022/09/25 01:06:07;;;;;;;6.90;4.25;;;;;;;13.02;77.18;100542.66;5053462;28;20055;-66
2022/09/25 01:08:35;;;;;;;7.18;4.45;;;;;;;13.06;76.67;100546.78;5070784;28;20056;-65
2022/09/25 01:11:02;;;;;;;7.75;4.38;;;;;;;13.06;76.77;100538.00;5050577;28;20048;-65
2022/09/25 01:13:29;;;;;;;6.80;5.00;;;;;;;13.03;76.67;100536.41;5039818;28;20067;-66
2022/09/25 01:16:18;;;;;;;8.57;4.43;;;;;;;13.05;76.31;100534.47;5046987;28;20055;-66
2022/09/25 01:19:08;;;;;;;6.35;4.22;;;;;;;13.04;75.88;100530.16;5037575;28;20735;-64
2022/09/25 01:21:41;;;;;;;7.40;4.70;;;;;;;13.08;75.62;100521.06;5059885;28;20060;-65
2022/09/25 01:24:32;;;;;;;7.70;4.50;;;;;;;13.15;75.04;100524.97;5035987;28;20067;-64
2022/09/25 01:27:05;;;;;;;5.68;3.42;;;;;;;13.15;74.65;100524.97;5036735;28;20509;-65
2022/09/25 01:29:38;;;;;;;6.90;4.68;;;;;;;13.17;73.80;100527.50;5059840;28;20056;-65
2022/09/25 01:32:36;;;;;;;4.97;4.07;;;;;;;13.18;73.34;100523.88;5070007;28;20060;-65
2022/09/25 01:35:07;;;;;;;5.75;4.20;;;;;;;13.17;73.17;100520.41;5049099;28;20174;-65
2022/09/25 01:37:46;;;;;;;6.28;4.10;;;;;;;13.13;72.78;100526.03;5068564;28;20052;-65
2022/09/25 01:40:32;;;;;;;8.68;4.00;;;;;;;13.11;73.22;100520.84;5039294;28;20526;-65
2022/09/25 01:43:17;;;;;;;5.55;4.28;;;;;;;13.16;72.78;100526.66;5039226;28;20061;-66
2022/09/25 01:45:51;;;;;;;5.53;3.83;;;;;;;13.20;72.45;100529.09;5029405;28;20052;-64
2022/09/25 01:48:23;;;;;;;7.47;4.30;;;;;;;13.21;72.32;100533.41;5067880;28;20532;-64
2022/09/25 01:50:58;;;;;;;4.38;3.25;;;;;;;13.17;72.50;100533.63;5064596;28;20133;-65
2022/09/25 01:53:31;;;;;;;5.97;4.05;;;;;;;13.15;72.63;100526.78;5033203;28;20052;-66
2022/09/25 01:56:05;;;;;;;5.45;3.78;;;;;;;13.16;72.41;100524.00;5052731;28;20427;-65
2022/09/25 01:58:41;;;;;;;5.30;4.20;;;;;;;13.13;72.27;100524.22;5039209;28;20049;-66
2022/09/25 02:01:16;;;;;;;5.53;4.00;;;;;;;13.10;72.40;100521.81;5047837;28;20136;-65
2022/09/25 02:03:45;;;;;;;;;;;;;;;13.07;72.79;100524.66;5034726;28;20048;-64
2022/09/25 02:06:18;;;;;;;4.70;3.65;;;;;;;13.07;72.39;100522.03;5051819;28;19920;-66
2022/09/25 02:08:52;;;;;;;4.95;3.90;;;;;;;13.06;72.65;100517.69;5051418;28;20041;-65
2022/09/25 02:11:20;;;;;;;6.90;3.83;;;;;;;13.08;72.90;100518.41;5051752;28;20135;-64
2022/09/25 02:13:54;;;;;;;5.30;3.75;;;;;;;13.11;72.57;100515.56;5046868;28;20124;-64
2022/09/25 02:16:26;;;;;;;4.82;3.60;;;;;;;13.10;72.67;100519.16;5069202;23;20334;-64
2022/09/25 02:22:05;;;;;;;5.30;3.67;;;;;;;13.08;72.36;100507.84;5053763;28;20120;-63
2022/09/25 02:24:41;;;;;;;6.82;4.00;;;;;;;13.09;72.49;100516.63;5043923;28;20049;-63
2022/09/25 02:27:08;;;;;;;6.88;3.92;;;;;;;13.06;72.75;100516.84;5037212;28;20124;-63
2022/09/25 02:29:35;;;;;;;5.18;3.90;;;;;;;13.05;73.44;100515.97;5050984;28;20057;-62
2022/09/25 02:32:05;;;;;;;7.30;4.63;;;;;;;13.01;72.98;100514.50;5034244;28;20572;-63
2022/09/25 02:34:32;;;;;;;4.85;3.70;;;;;;;12.97;73.40;100509.56;5019306;28;20047;-63
2022/09/25 02:36:59;;;;;;;5.95;3.83;;;;;;;13.01;73.08;100511.03;5036442;28;20063;-63
2022/09/25 02:39:29;;;;;;;5.45;4.22;;;;;;;13.05;72.41;100507.22;5048601;28;20051;-63
2022/09/25 02:42:41;;;;;;;7.63;4.15;;;;;;;13.08;72.80;100514.94;5035434;28;20048;-62
2022/09/25 02:45:18;;;;;;;5.55;3.95;;;;;;;13.11;72.17;100517.38;4950518;28;20043;-63
2022/09/25 02:47:59;;;;;;;5.50;3.85;;;;;;;13.08;72.56;100510.50;5048050;28;20057;-63
2022/09/25 02:50:46;;;;;;;4.97;3.80;;;;;;;13.08;72.25;100515.78;5052928;28;20052;-64
2022/09/25 02:53:35;;;;;;;6.03;3.35;;;;;;;13.09;72.14;100516.63;5022463;28;20049;-64
2022/09/25 02:56:07;;;;;;;6.20;4.05;;;;;;;13.08;72.23;100510.50;5020246;28;20056;-62
2022/09/25 02:58:51;;;;;;;4.70;3.70;;;;;;;13.11;72.12;100509.44;5026632;28;20501;-62
2022/09/25 03:01:21;;;;;;;7.05;3.88;;;;;;;13.08;72.00;100512.28;5028326;28;20064;-62
2022/09/25 03:03:50;;;;;;;7.15;3.83;;;;;;;13.08;72.30;100505.22;5027756;28;20064;-63
2022/09/25 03:06:18;;;;;;;4.90;4.18;;;;;;;13.09;71.92;100501.59;5029192;28;20049;-63
2022/09/25 03:08:48;;;;;;;6.03;4.25;;;;;;;13.05;72.53;100504.56;5030354;28;20049;-63
2022/09/25 03:11:18;;;;;;;7.25;4.20;;;;;;;13.00;72.41;100509.34;5032413;28;20049;-62
2022/09/25 03:13:54;;;;;;;7.03;4.05;;;;;;;12.97;72.62;100506.91;5057820;28;20386;-63
2022/09/25 03:16:35;;;;;;;5.60;4.13;;;;;;;12.98;73.02;100505.97;5054891;28;20055;-63
2022/09/25 03:19:02;;;;;;;4.95;3.85;;;;;;;12.92;72.63;100512.53;5038185;28;20055;-63
2022/09/25 03:21:30;;;;;;;8.23;4.30;;;;;;;12.91;73.00;100508.19;5038376;28;20049;-62
2022/09/25 03:23:58;;;;;;;5.80;3.72;;;;;;;12.89;72.81;100504.81;5037962;28;20089;-62
2022/09/25 03:26:26;;;;;;;6.00;4.05;;;;;;;12.87;73.23;100504.91;5053531;28;20072;-65
2022/09/25 03:28:53;;;;;;;5.93;4.30;;;;;;;12.88;72.88;100504.00;5050448;28;20048;-63
2022/09/25 03:31:20;;;;;;;4.07;3.47;;;;;;;12.89;73.21;100504.81;5051197;28;20044;-60
2022/09/25 03:33:48;;;;;;;6.68;3.70;;;;;;;12.91;72.84;100501.09;5053903;28;20063;-61
2022/09/25 03:36:17;;;;;;;5.22;3.88;;;;;;;12.88;73.08;100504.00;5051160;28;20060;-63
2022/09/25 03:38:47;;;;;;;5.97;3.88;;;;;;;12.86;73.27;100500.59;5061207;28;20052;-62
2022/09/25 03:41:19;;;;;;;7.43;4.60;;;;;;;12.85;73.17;100506.00;5054292;28;20056;-62
2022/09/25 03:43:53;;;;;;;6.15;4.45;;;;;;;12.86;73.39;100497.94;5059750;28;20140;-64
2022/09/25 03:46:23;;;;;;;6.63;4.15;;;;;;;12.87;72.83;100491.72;5039003;28;20132;-63
2022/09/25 03:48:52;;;;;;;5.18;4.00;;;;;;;12.89;73.44;100500.38;5055771;28;20059;-63
2022/09/25 03:51:19;;;;;;;6.22;4.35;;;;;;;12.90;73.06;100503.88;5059179;28;20052;-63
2022/09/25 03:53:47;;;;;;;6.07;4.65;;;;;;;12.85;73.32;100495.44;5051912;28;20056;-62
2022/09/25 03:56:17;;;;;;;9.77;4.70;;;;;;;12.85;73.17;100496.28;5050825;28;20421;-62
2022/09/25 03:58:45;;;;;;;8.00;4.50;;;;;;;12.86;73.17;100494.47;5029361;28;20046;-62
2022/09/25 04:01:13;;;;;;;6.03;4.45;;;;;;;12.84;73.14;100493.75;5049597;28;20041;-63
2022/09/25 04:03:44;;;;;;;7.20;4.38;;;;;;;12.83;73.69;100492.03;5053105;28;20543;-63
2022/09/25 04:06:13;;;;;;;7.25;4.45;;;;;;;12.84;73.92;100493.75;5052891;28;20397;-63
2022/09/25 04:08:41;;;;;;;7.90;4.45;;;;;;;12.77;74.10;100488.03;5053644;28;20041;-63
2022/09/25 04:11:08;;;;;;;7.15;4.53;;;;;;;12.82;73.83;100491.19;5030076;28;20049;-65
2022/09/25 04:13:36;;;;;;;5.40;4.20;;;;;;;12.79;73.85;100490.56;5051573;28;20064;-61
2022/09/25 04:16:04;;;;;;;8.75;4.88;;;;;;;12.78;73.91;100491.50;5053497;28;20057;-62
2022/09/25 04:18:32;;;;;;;8.70;5.00;;;;;;;12.75;74.42;100487.31;5037621;28;20512;-60
2022/09/25 04:21:07;;;;;;;7.20;4.75;;;;;;;12.73;74.00;100491.00;5051597;28;20068;-62
2022/09/25 04:23:35;;;;;;;6.22;5.07;;;;;;;12.77;73.99;100487.19;5052956;28;20053;-63
2022/09/25 04:26:02;;;;;;;5.82;4.63;;;;;;;12.82;73.80;100487.72;5052751;28;20067;-62
2022/09/25 04:28:31;;;;;;;7.45;4.85;;;;;;;12.81;73.69;100491.31;5057922;28;20064;-63
2022/09/25 04:30:58;;;;;;;6.00;4.95;;;;;;;12.81;73.74;100486.03;5051378;28;20060;-63
2022/09/25 04:36:17;;;;;;;8.38;5.10;;;;;;;12.81;73.46;100491.31;5054969;28;20049;-63
2022/09/25 04:38:46;;;;;;;6.22;5.13;;;;;;;12.80;73.08;100494.91;5051057;28;20127;-62
2022/09/25 04:41:18;;;;;;;6.10;4.88;;;;;;;12.81;73.23;100493.94;5051632;28;20064;-62
2022/09/25 04:43:46;;;;;;;7.30;5.45;;;;;;;12.80;73.24;100490.47;5040702;28;20091;-61
2022/09/25 04:46:13;;;;;;;13.15;5.07;;;;;;;12.80;73.22;100484.34;5054910;28;20045;-61
2022/09/25 04:48:48;;;;;;;7.60;4.97;;;;;;;12.76;73.34;100490.78;5056244;28;20135;-63
2022/09/25 04:51:15;;;;;;;10.13;4.88;;;;;;;12.76;73.34;100489.00;5052434;28;20311;-62
2022/09/25 04:53:42;;;;;;;7.53;5.60;;;;;;;12.74;73.32;100497.97;5058343;28;20252;-63
2022/09/25 04:56:10;;;;;;;8.60;5.78;;;;;;;12.68;73.86;100488.69;5031661;28;20061;-63
2022/09/25 04:58:46;;;;;;;8.27;5.47;;;;;;;12.64;73.96;100485.41;5045174;28;20057;-62
2022/09/25 05:01:15;;;;;;;7.70;5.60;;;;;;;12.66;74.13;100487.94;5049751;28;20409;-63
2022/09/25 05:03:42;;;;;;;7.63;5.63;;;;;;;12.59;74.53;100482.25;5054980;28;20060;-62
2022/09/25 05:06:09;;;;;;;8.98;5.35;;;;;;;12.62;74.49;100481.19;5055839;28;20550;-63
2022/09/25 05:08:36;;;;;;;6.47;5.88;;;;;;;12.63;73.84;100481.06;5054491;28;20068;-64
2022/09/25 05:11:03;;;;;;;6.30;5.30;;;;;;;12.67;73.70;100482.56;5056432;28;20474;-63
2022/09/25 05:13:30;;;;;;;7.70;5.70;;;;;;;12.71;73.43;100485.84;5051130;28;20049;-63
2022/09/25 05:15:58;;;;;;;8.65;6.13;;;;;;;12.72;73.94;100491.97;5036878;28;20048;-63
2022/09/25 05:18:25;;;;;;;7.90;5.70;;;;;;;12.72;73.60;100489.31;5051631;28;20049;-62
2022/09/25 05:20:53;;;;;;;9.38;6.63;;;;;;;12.68;73.64;100493.97;5054965;28;20074;-62
2022/09/25 05:23:20;;;;;;;8.18;5.47;;;;;;;12.66;73.89;100491.44;5055632;28;20053;-64
2022/09/25 05:25:52;;;;;;;10.27;5.85;;;;;;;12.61;74.12;100488.28;5046233;28;20048;-63
2022/09/25 05:28:19;;;;;;;6.82;5.70;;;;;;;12.63;74.19;100485.53;5048980;28;20064;-62
2022/09/25 05:30:46;;;;;;;9.27;5.80;;;;;;;12.61;74.04;100490.06;5048398;28;20080;-64
2022/09/25 05:33:13;;;;;;;8.18;5.80;;;;;;;12.55;74.74;100491.31;5049386;28;20048;-63
2022/09/25 05:35:40;;;;;;;9.13;6.25;;;;;;;12.53;74.64;100498.53;5041171;28;20524;-64
2022/09/25 05:38:07;;;;;;;6.97;5.53;;;;;;;12.57;74.09;100496.50;5042525;28;20045;-61
2022/09/25 05:40:37;;;;;;;7.78;6.03;;;;;;;12.56;74.62;100498.31;5049135;28;20044;-62
2022/09/25 05:43:05;;;;;;;9.38;6.50;;;;;;;12.60;74.48;100501.56;5050133;28;20072;-63
2022/09/25 05:45:34;;;;;;;7.85;5.57;;;;;;;12.61;73.89;100509.41;5026941;28;20056;-63
2022/09/25 05:48:06;;;;;;;8.82;6.47;;;;;;;12.63;74.15;100496.91;5049393;28;20845;-63
2022/09/25 05:50:33;;;;;;;14.05;6.80;;;;;;;12.59;74.36;100498.09;5043742;28;20509;-63
2022/09/25 05:53:02;;;;;;;10.15;6.00;;;;;;;12.60;73.96;100494.47;5044949;28;20053;-63
2022/09/25 05:55:30;;;;;;;9.38;6.32;;;;;;;12.65;73.95;100499.44;5048561;28;20124;-62
2022/09/25 05:58:01;;;;;;;7.43;6.07;;;;;;;12.66;74.13;100502.00;5048311;28;20055;-63
2022/09/25 06:00:31;;;;;;;8.23;5.82;;;;;;;12.64;73.75;100497.75;5046471;28;20053;-63
2022/09/25 06:03:00;;;;;;;7.80;5.97;;;;;;;12.63;74.81;100494.28;5029660;28;20067;-63
2022/09/25 06:05:27;;;;;;;7.25;5.53;;;;;;;12.60;74.23;100504.19;5048974;28;20072;-64
2022/09/25 06:07:55;;;;;;;10.05;5.90;;;;;;;12.64;75.13;100503.03;5043273;28;20053;-61
2022/09/25 06:10:24;;;;;;;9.00;7.00;;;;;;;12.67;75.14;100498.41;5048880;28;20040;-63
2022/09/25 06:12:58;;;;;;;10.13;6.93;;;;;;;12.71;75.53;100503.47;5050644;28;20052;-63
2022/09/25 06:15:27;;;;;;;8.38;6.45;;;;;;;12.74;75.09;100500.59;5051970;28;20052;-62
2022/09/25 06:17:55;;;;;;;9.40;6.57;;;;;;;12.72;74.90;100500.72;5043965;28;20060;-60
2022/09/25 06:20:22;;;;;;;10.43;7.32;;;;;;;12.74;74.69;100501.44;5048584;28;20047;-62
2022/09/25 06:22:56;;;;;;;12.52;7.30;;;;;;;12.76;74.46;100504.84;5051179;28;20427;-62
2022/09/25 06:25:25;;;;;;;10.60;7.40;;;;;;;12.79;75.00;100503.75;5047991;28;20059;-62
2022/09/25 06:27:53;;;;;;;10.82;7.05;;;;;;;12.82;74.94;100512.31;5037257;28;20140;-63
2022/09/25 06:30:22;;;;;;;8.90;7.10;;;;;;;12.89;74.89;100512.75;5051496;28;20056;-63
2022/09/25 06:32:56;;;;;;;9.40;7.10;;;;;;;12.88;74.45;100511.06;5052789;28;20067;-62
2022/09/25 06:35:23;;;;;;;9.48;7.45;;;;;;;12.87;74.57;100517.28;5045494;28;20053;-63
2022/09/25 06:37:50;;;;;;;11.10;8.00;;;;;;;12.91;74.41;100516.13;5051285;28;20439;-63
2022/09/25 06:40:17;;;;;;;8.82;7.50;;;;;;;12.93;74.69;100515.06;5058038;28;20052;-62
2022/09/25 06:42:45;;;;;;;10.55;7.32;;;;;;;12.98;74.89;100513.91;5054390;28;20163;-60
2022/09/25 06:45:12;;;;;;;11.18;7.00;;;;;;;13.06;74.85;100517.69;5054445;28;20047;-61
2022/09/25 06:47:40;;;;;;;10.13;7.63;;;;;;;13.07;75.02;100513.25;5036867;28;20049;-62
2022/09/25 06:50:07;;;;;;;9.05;7.22;;;;;;;13.05;74.92;100515.97;5050284;28;20059;-62
2022/09/25 06:52:41;;;;;;;10.25;7.38;;;;;;;13.08;75.28;100509.66;5057894;28;20063;-62
2022/09/25 06:55:08;;;;;;;12.50;7.43;;;;;;;13.09;75.20;100511.34;5054400;28;20136;-62
2022/09/25 06:57:36;;;;;;;11.45;7.78;;;;;;;13.08;75.33;100515.78;5034983;28;20076;-61
2022/09/25 07:00:04;;;;;;;10.65;7.78;;;;;;;13.09;74.91;100506.88;5052288;28;20045;-63
2022/09/25 07:05:17;;;;;;;;;;;;;;;13.06;75.88;100515.06;5058370;28;20087;-63
2022/09/25 07:07:45;;;;;;;12.10;8.02;;;;;;;13.07;75.33;100515.91;5061647;28;19920;-62
2022/09/25 07:10:12;;;;;;;11.27;8.05;;;;;;;13.10;75.58;100519.16;5055743;28;20091;-62
2022/09/25 07:12:40;;;;;;;17.25;8.20;;;;;;;13.11;76.19;100512.94;5056022;28;20055;-62
2022/09/25 07:15:07;;;;;;;12.32;7.82;;;;;;;13.11;76.07;100506.81;5034695;28;20048;-63
2022/09/25 07:17:35;;;;;;;11.60;8.55;;;;;;;13.09;76.58;100506.88;5053549;28;20059;-63
2022/09/25 07:20:02;;;;;;;10.63;7.82;;;;;;;13.16;75.91;100508.16;5046093;28;20382;-63
2022/09/25 07:22:29;;;;;;;13.25;8.60;;;;;;;13.23;75.38;100503.28;5058837;28;20099;-63
2022/09/25 07:24:56;;;;;;;10.20;7.57;;;;;;;13.29;75.32;100505.50;5053827;28;20059;-64
2022/09/25 07:27:23;;;;;;;11.45;7.90;;;;;;;13.42;74.64;100502.81;5051201;28;20045;-64
2022/09/25 07:29:51;;;;;;;13.07;8.98;;;;;;;13.46;74.58;100498.97;5051334;28;20059;-64
2022/09/25 07:32:19;;;;;;;12.45;8.82;;;;;;;13.42;74.45;100494.91;5057245;28;20049;-64
2022/09/25 07:34:49;;;;;;;10.88;8.57;;;;;;;13.46;74.10;100496.34;5054514;28;20421;-63
2022/09/25 07:37:17;;;;;;;10.02;7.55;;;;;;;13.48;73.90;100496.25;5051973;28;20379;-63
2022/09/25 07:39:44;;;;;;;13.20;8.20;;;;;;;13.49;73.99;100495.28;5053760;28;20413;-62
2022/09/25 07:42:11;;;;;;;11.82;8.20;;;;;;;13.54;73.72;100498.44;5051122;28;20066;-62
2022/09/25 07:44:39;;;;;;;13.75;9.02;;;;;;;13.58;73.54;100508.66;5051037;28;20140;-63
2022/09/25 07:47:14;;;;;;;10.45;8.23;;;;;;;13.67;73.81;100507.16;5050563;28;20049;-63
2022/09/25 07:49:41;;;;;;;11.82;8.70;;;;;;;13.67;74.52;100510.63;5052184;28;20049;-62
2022/09/25 07:52:08;;;;;;;11.45;8.65;;;;;;;13.70;74.00;100511.38;5055032;28;20045;-63
2022/09/25 07:54:36;;;;;;;12.48;8.40;;;;;;;13.67;74.15;100513.28;5052420;28;20389;-62
2022/09/25 07:57:03;;;;;;;12.38;8.48;;;;;;;13.74;74.10;100503.09;5052524;28;20444;-62
2022/09/25 07:59:30;;;;;;;13.40;8.57;;;;;;;13.76;73.91;100501.19;5056119;28;20047;-64
2022/09/25 08:01:57;;;;;;;12.27;7.88;;;;;;;13.82;73.96;100499.88;5057120;28;20085;-62
2022/09/25 08:04:25;;;;;;;14.63;8.45;;;;;;;13.89;73.83;100493.19;5054050;28;20056;-62
2022/09/25 08:06:52;;;;;;;11.00;8.18;;;;;;;13.98;74.03;100489.84;5039854;28;20045;-63
2022/09/25 08:09:19;;;;;;;10.73;7.47;;;;;;;14.03;73.95;100487.69;5055056;28;20390;-63
2022/09/25 08:11:46;;;;;;;10.25;7.55;;;;;;;14.11;73.36;100484.47;5060795;28;20053;-64
2022/09/25 08:14:13;;;;;;;12.32;9.32;;;;;;;14.23;73.20;100474.72;5055535;28;20048;-63
2022/09/25 08:16:41;;;;;;;11.52;7.97;;;;;;;14.30;72.83;100475.97;5059492;28;20060;-62
2022/09/25 08:19:10;;;;;;;10.68;8.63;;;;;;;14.37;72.65;100480.66;5044703;28;20053;-62
2022/09/25 08:21:37;;;;;;;11.52;8.95;;;;;;;14.41;72.43;100479.47;5032631;28;20548;-62
2022/09/25 08:24:04;;;;;;;11.77;8.40;;;;;;;14.45;72.44;100480.06;5048917;28;20049;-61
2022/09/25 08:26:31;;;;;;;11.38;8.98;;;;;;;14.43;72.57;100480.19;5032341;28;20548;-60
2022/09/25 08:28:59;;;;;;;11.38;7.85;;;;;;;14.50;72.58;100477.97;5051321;28;20048;-59
2022/09/25 08:31:26;;;;;;;9.57;7.43;;;;;;;14.57;72.51;100478.31;5049320;28;20045;-57
2022/09/25 08:33:53;;;;;;;12.25;8.70;;;;;;;14.59;72.13;100474.59;5043077;28;20041;-60
2022/09/25 08:36:20;;;;;;;13.18;7.80;;;;;;;14.61;71.95;100477.94;5052357;28;20497;-60
2022/09/25 08:38:48;;;;;;;16.33;9.52;;;;;;;14.61;71.82;100472.66;5051256;28;20064;-61
2022/09/25 08:41:17;;;;;;;8.85;7.70;;;;;;;14.58;71.60;100477.34;5047299;28;20052;-60
2022/09/25 08:43:56;;;;;;;12.15;8.02;;;;;;;14.65;71.30;100483.84;5025774;28;20061;-60
2022/09/25 08:50:20;;;;;;;16.20;9.50;;;;;;;14.65;71.47;100479.41;5048916;28;20140;-60
2022/09/25 08:52:51;;;;;;;11.05;7.82;;;;;;;14.67;72.16;100479.25;5026122;28;20156;-61
2022/09/25 08:56:13;;;;;;;14.50;10.02;;;;;;;14.68;72.40;100475.69;5049769;28;20092;-60
2022/09/25 08:58:20;;;;;;;11.23;8.38;;;;;;;14.71;72.06;100482.53;5047224;28;20061;-60
2022/09/25 09:00:48;;;;;;;15.25;9.13;;;;;;;14.75;72.20;100473.38;5029604;28;20386;-61
2022/09/25 09:03:15;;;;;;;10.73;8.63;;;;;;;14.78;72.12;100471.34;5047738;28;20152;-60
2022/09/25 09:05:45;;;;;;;13.93;9.35;;;;;;;14.86;71.85;100468.94;5013170;28;20057;-60
2022/09/25 09:08:24;;;;;;;12.73;10.63;;;;;;;14.84;72.05;100472.66;5045953;28;20049;-60
2022/09/25 09:10:56;;;;;;;13.85;9.13;;;;;;;14.86;72.34;100471.56;5031731;28;20060;-62
2022/09/25 09:13:27;;;;;;;13.27;8.43;;;;;;;14.94;72.21;100466.47;5028217;28;20057;-59
2022/09/25 09:16:02;;;;;;;15.45;8.00;;;;;;;15.07;71.44;100469.00;5018649;28;20068;-61
2022/09/25 09:18:38;;;;;;;17.88;10.95;;;;;;;15.13;71.34;100470.31;5027587;28;20361;-61
2022/09/25 09:21:34;;;;;;;13.38;9.05;;;;;;;15.19;71.10;100469.84;5049884;28;20045;-61
2022/09/25 09:24:07;;;;;;;13.77;9.32;;;;;;;15.26;70.26;100472.81;5030598;28;20048;-62
2022/09/25 09:27:04;;;;;;;12.65;9.20;;;;;;;15.32;70.09;100467.03;5048042;28;20072;-61
2022/09/25 09:29:53;;;;;;;9.63;8.63;;;;;;;15.43;69.61;100470.47;5049200;28;20048;-61
2022/09/25 09:32:40;;;;;;;18.30;11.05;;;;;;;15.48;68.59;100470.09;5047897;28;20041;-61
2022/09/25 09:35:25;;;;;;;11.30;9.38;;;;;;;15.47;68.60;100467.59;5035074;28;20056;-62
2022/09/25 09:38:27;;;;;;;12.07;9.98;;;;;;;15.51;68.85;100467.22;5047261;28;20056;-62
2022/09/25 09:41:06;;;;;;;11.60;8.75;;;;;;;15.52;68.77;100457.44;5045717;28;20053;-61
2022/09/25 09:43:51;;;;;;;12.38;8.85;;;;;;;15.59;68.56;100458.63;5031095;28;20464;-61
2022/09/25 09:47:01;;;;;;;14.13;9.52;;;;;;;15.65;68.19;100443.06;5044815;28;20048;-61
2022/09/25 09:49:40;;;;;;;14.10;9.35;;;;;;;15.72;68.19;100439.91;5030037;28;20048;-62
2022/09/25 09:52:23;;;;;;;12.55;9.05;;;;;;;15.78;68.60;100439.41;5050881;28;20496;-62
2022/09/25 09:54:54;;;;;;;12.77;9.90;;;;;;;15.88;67.94;100437.66;5031964;28;20053;-62
2022/09/25 09:57:27;;;;;;;11.32;9.07;;;;;;;15.88;68.00;100440.31;5030850;28;20053;-62
2022/09/25 10:00:01;;;;;;;12.40;8.88;;;;;;;15.94;67.85;100439.81;5051469;28;20536;-61
2022/09/25 10:02:40;;;;;;;13.35;9.45;;;;;;;16.07;67.51;100435.09;5016429;28;20041;-61
2022/09/25 10:05:16;;;;;;;11.80;9.13;;;;;;;16.12;66.45;100434.72;5051590;28;20056;-61
2022/09/25 10:07:44;;;;;;;13.38;9.65;;;;;;;16.11;67.05;100435.69;5042265;28;20053;-62
2022/09/25 10:10:13;;;;;;;12.95;9.50;;;;;;;16.20;66.84;100432.25;5032035;28;20065;-61
2022/09/25 10:12:49;;;;;;;14.45;10.15;;;;;;;16.22;66.65;100435.63;5049544;28;20040;-63
2022/09/25 10:15:29;;;;;;;11.82;9.93;;;;;;;16.20;66.29;100435.75;5038086;28;20052;-62
2022/09/25 10:17:58;;;;;;;23.02;10.73;;;;;;;16.16;66.06;100431.66;5030844;28;20060;-62
2022/09/25 10:20:30;;;;;;;11.95;9.25;;;;;;;16.24;66.53;100425.72;5037137;28;20075;-60
2022/09/25 10:22:59;;;;;;;12.48;9.07;;;;;;;16.25;66.35;100427.38;5028256;28;20071;-62
2022/09/25 10:25:38;;;;;;;10.88;9.73;;;;;;;16.31;66.10;100426.88;5031391;28;20521;-61
2022/09/25 10:28:21;;;;;;;12.38;10.05;;;;;;;16.45;66.27;100433.66;5047542;28;20049;-62
2022/09/25 10:30:49;;;;;;;10.32;8.88;;;;;;;16.65;66.13;100429.25;5050323;28;20401;-61
2022/09/25 10:33:28;;;;;;;15.20;9.13;;;;;;;16.88;66.17;100429.91;5028157;28;20401;-60
2022/09/25 10:35:55;;;;;;;10.60;9.50;;;;;;;17.03;65.56;100430.41;5043597;28;20056;-61
2022/09/25 10:38:28;;;;;;;15.77;11.23;;;;;;;17.02;62.99;100426.91;5051204;28;20045;-61
2022/09/25 10:41:13;;;;;;;12.88;10.32;;;;;;;16.97;63.13;100423.78;5047139;28;20057;-62
2022/09/25 10:43:58;;;;;;;14.85;10.65;;;;;;;16.93;63.13;100427.69;5031992;28;20079;-61
2022/09/25 10:52:08;;;;;;;13.52;9.90;;;;;;;17.41;62.79;100419.78;5041825;28;21017;-60
2022/09/25 10:54:35;;;;;;;14.52;10.45;;;;;;;17.63;62.32;100415.19;5046158;28;20817;-60
2022/09/25 10:57:25;;;;;;;15.00;10.25;;;;;;;17.72;61.24;100414.31;5046571;28;20045;-64
2022/09/25 10:59:53;;;;;;;11.13;8.75;;;;;;;17.85;61.74;100412.25;5037210;28;20056;-60
2022/09/25 11:02:45;;;;;;;12.18;9.32;;;;;;;18.14;61.06;100409.50;5038191;28;20045;-61
2022/09/25 11:05:18;;;;;;;11.65;9.45;;;;;;;18.31;60.86;100407.09;5039335;28;20056;-62
2022/09/25 11:07:51;;;;;;;22.33;9.10;;;;;;;18.42;59.43;100412.25;5028998;28;20064;-61
2022/09/25 11:10:26;;;;;;;13.30;8.70;;;;;;;18.52;57.89;100413.03;5040661;28;20057;-62
2022/09/25 11:12:53;;;;;;;10.77;9.68;;;;;;;18.58;58.45;100409.78;5043923;28;20053;-61
2022/09/25 11:15:22;;;;;;;10.70;7.93;;;;;;;18.67;58.51;100405.38;5044316;28;20041;-61
2022/09/25 11:17:52;;;;;;;10.00;8.60;;;;;;;18.76;57.88;100411.69;5023140;28;20447;-62
2022/09/25 11:20:28;;;;;;;11.10;8.40;;;;;;;18.74;57.70;100419.03;5043017;28;20048;-62
2022/09/25 11:23:41;;;;;;;11.60;8.68;;;;;;;18.76;56.96;100406.38;5045514;28;20029;-61
2022/09/25 11:26:18;;;;;;;10.35;8.13;;;;;;;18.90;57.78;100401.34;5021842;28;20405;-63
2022/09/25 11:28:53;;;;;;;10.00;9.00;;;;;;;18.93;56.42;100408.22;5002183;28;20481;-62
2022/09/25 11:31:20;;;;;;;;;;;;;;;18.94;57.12;100400.06;5025899;28;20049;-62
2022/09/25 11:34:19;;;;;;;13.18;8.85;;;;;;;19.18;56.31;100402.19;5045565;28;19931;-62
2022/09/25 11:36:51;;;;;;;13.18;9.20;;;;;;;19.26;54.89;100403.22;5008566;28;20049;-62
2022/09/25 11:42:50;;;;;;;11.75;9.65;;;;;;;18.99;54.52;100396.94;4959786;28;20051;-62
2022/09/25 11:45:25;;;;;;;13.73;10.20;;;;;;;18.94;55.28;100385.91;5039228;28;20477;-63
2022/09/25 11:48:27;;;;;;;13.00;9.47;;;;;;;19.05;55.39;100388.38;5047422;28;20504;-62
2022/09/25 11:51:06;;;;;;;12.30;9.18;;;;;;;19.20;55.43;100383.34;5007006;28;20091;-62
2022/09/25 11:53:43;;;;;;;11.18;8.27;;;;;;;19.38;54.70;100378.00;5048844;28;20063;-62
2022/09/25 11:56:37;;;;;;;10.55;8.05;;;;;;;19.38;54.15;100375.34;5030628;28;20045;-62
2022/09/25 11:59:20;;;;;;;14.57;7.22;;;;;;;19.48;54.68;100370.75;5030219;28;20057;-62
2022/09/25 12:01:59;;;;;;;9.98;7.18;;;;;;;19.57;54.83;100367.16;5043796;28;20052;-61
2022/09/25 12:04:58;;;;;;;9.57;8.57;;;;;;;19.51;54.34;100365.09;5047452;28;20421;-62
2022/09/25 12:07:44;;;;;;;10.05;8.25;;;;;;;19.52;54.55;100369.44;5007006;28;20414;-61
2022/09/25 12:10:35;;;;;;;11.07;7.40;;;;;;;19.48;54.60;100368.06;5043050;28;20588;-62